sensor_id;sensor_type;location;lat;lon;timestamp;P1;durP1;ratioP1;P2;durP2;ratioP2
42110;SDS011;27766;52.174;5.456;2023-07-28T00:01:11;17.60;;;13.90;;
42110;SDS011;27766;52.174;5.456;2023-07-28T00:03:38;20.63;;;15.07;;
42110;SDS011;27766;52.174;5.456;2023-07-28T00:06:05;21.88;;;15.35;;
42110;SDS011;27766;52.174;5.456;2023-07-28T00:08:32;21.17;;;15.35;;
42110;SDS011;27766;52.174;5.456;2023-07-28T00:10:59;19.80;;;15.13;;
42110;SDS011;27766;52.174;5.456;2023-07-28T00:13:27;23.25;;;16.23;;
42110;SDS011;27766;52.174;5.456;2023-07-28T00:15:54;18.75;;;15.73;;
42110;SDS011;27766;52.174;5.456;2023-07-28T00:18:21;17.98;;;15.35;;
42110;SDS011;27766;52.174;5.456;2023-07-28T00:20:48;21.52;;;15.57;;
42110;SDS011;27766;52.174;5.456;2023-07-28T00:23:15;19.20;;;15.90;;
42110;SDS011;27766;52.174;5.456;2023-07-28T00:25:42;20.38;;;16.30;;
42110;SDS011;27766;52.174;5.456;2023-07-28T00:28:10;21.20;;;16.50;;
42110;SDS011;27766;52.174;5.456;2023-07-28T00:30:37;21.15;;;16.25;;
42110;SDS011;27766;52.174;5.456;2023-07-28T00:33:04;26.77;;;17.02;;
42110;SDS011;27766;52.174;5.456;2023-07-28T00:35:32;19.52;;;15.73;;
42110;SDS011;27766;52.174;5.456;2023-07-28T00:37:59;20.73;;;14.48;;
42110;SDS011;27766;52.174;5.456;2023-07-28T00:40:26;23.70;;;15.23;;
42110;SDS011;27766;52.174;5.456;2023-07-28T00:42:54;27.08;;;14.50;;
42110;SDS011;27766;52.174;5.456;2023-07-28T00:45:21;18.48;;;13.88;;
42110;SDS011;27766;52.174;5.456;2023-07-28T00:47:48;21.77;;;14.52;;
42110;SDS011;27766;52.174;5.456;2023-07-28T00:50:16;21.90;;;13.90;;
42110;SDS011;27766;52.174;5.456;2023-07-28T00:52:43;19.58;;;13.75;;
42110;SDS011;27766;52.174;5.456;2023-07-28T00:55:10;17.23;;;12.82;;
42110;SDS011;27766;52.174;5.456;2023-07-28T00:57:37;17.52;;;13.40;;
42110;SDS011;27766;52.174;5.456;2023-07-28T01:00:06;19.92;;;14.25;;
42110;SDS011;27766;52.174;5.456;2023-07-28T01:02:33;18.65;;;12.93;;
42110;SDS011;27766;52.174;5.456;2023-07-28T01:05:01;20.52;;;13.82;;
42110;SDS011;27766;52.174;5.456;2023-07-28T01:07:49;18.88;;;13.50;;
42110;SDS011;27766;52.174;5.456;2023-07-28T01:10:34;21.77;;;13.57;;
42110;SDS011;27766;52.174;5.456;2023-07-28T01:13:01;18.33;;;12.32;;
42110;SDS011;27766;52.174;5.456;2023-07-28T01:15:28;20.63;;;14.18;;
42110;SDS011;27766;52.174;5.456;2023-07-28T01:17:55;18.55;;;12.95;;
42110;SDS011;27766;52.174;5.456;2023-07-28T01:20:23;26.45;;;14.02;;
42110;SDS011;27766;52.174;5.456;2023-07-28T01:28:34;24.98;;;14.30;;
42110;SDS011;27766;52.174;5.456;2023-07-28T01:31:02;20.67;;;13.07;;
42110;SDS011;27766;52.174;5.456;2023-07-28T01:33:32;19.10;;;13.20;;
42110;SDS011;27766;52.174;5.456;2023-07-28T01:35:59;20.05;;;13.15;;
42110;SDS011;27766;52.174;5.456;2023-07-28T01:38:30;18.23;;;13.77;;
42110;SDS011;27766;52.174;5.456;2023-07-28T01:40:57;21.85;;;13.00;;
42110;SDS011;27766;52.174;5.456;2023-07-28T01:43:24;18.35;;;13.25;;
42110;SDS011;27766;52.174;5.456;2023-07-28T01:45:52;17.55;;;13.15;;
42110;SDS011;27766;52.174;5.456;2023-07-28T01:48:19;24.63;;;15.05;;
42110;SDS011;27766;52.174;5.456;2023-07-28T01:50:46;19.10;;;14.65;;
42110;SDS011;27766;52.174;5.456;2023-07-28T01:53:13;28.45;;;14.20;;
42110;SDS011;27766;52.174;5.456;2023-07-28T01:55:41;24.05;;;14.23;;
42110;SDS011;27766;52.174;5.456;2023-07-28T01:58:08;19.17;;;13.05;;
42110;SDS011;27766;52.174;5.456;2023-07-28T02:00:36;27.70;;;13.85;;
42110;SDS011;27766;52.174;5.456;2023-07-28T02:03:03;28.45;;;14.90;;
42110;SDS011;27766;52.174;5.456;2023-07-28T02:05:31;18.30;;;12.50;;
42110;SDS011;27766;52.174;5.456;2023-07-28T02:07:58;21.08;;;13.65;;
42110;SDS011;27766;52.174;5.456;2023-07-28T02:10:26;20.65;;;12.48;;
42110;SDS011;27766;52.174;5.456;2023-07-28T02:12:54;19.48;;;13.35;;
42110;SDS011;27766;52.174;5.456;2023-07-28T02:15:21;23.88;;;14.68;;
42110;SDS011;27766;52.174;5.456;2023-07-28T02:17:48;19.63;;;12.60;;
42110;SDS011;27766;52.174;5.456;2023-07-28T02:20:16;19.65;;;13.27;;
42110;SDS011;27766;52.174;5.456;2023-07-28T02:22:43;21.05;;;12.23;;
42110;SDS011;27766;52.174;5.456;2023-07-28T02:25:10;21.80;;;12.60;;
42110;SDS011;27766;52.174;5.456;2023-07-28T02:27:38;16.33;;;11.65;;
42110;SDS011;27766;52.174;5.456;2023-07-28T02:30:05;18.73;;;12.32;;
42110;SDS011;27766;52.174;5.456;2023-07-28T02:32:33;18.83;;;11.25;;
42110;SDS011;27766;52.174;5.456;2023-07-28T02:35:01;21.92;;;12.80;;
42110;SDS011;27766;52.174;5.456;2023-07-28T02:37:28;20.20;;;12.85;;
42110;SDS011;27766;52.174;5.456;2023-07-28T02:39:55;23.88;;;14.13;;
42110;SDS011;27766;52.174;5.456;2023-07-28T02:42:23;23.90;;;13.90;;
42110;SDS011;27766;52.174;5.456;2023-07-28T02:44:52;28.48;;;14.18;;
42110;SDS011;27766;52.174;5.456;2023-07-28T02:47:19;22.88;;;14.52;;
42110;SDS011;27766;52.174;5.456;2023-07-28T02:49:46;22.17;;;13.88;;
42110;SDS011;27766;52.174;5.456;2023-07-28T02:52:13;23.27;;;13.75;;
42110;SDS011;27766;52.174;5.456;2023-07-28T02:54:40;23.80;;;15.07;;
42110;SDS011;27766;52.174;5.456;2023-07-28T02:57:08;20.70;;;13.88;;
42110;SDS011;27766;52.174;5.456;2023-07-28T02:59:35;29.08;;;16.48;;
42110;SDS011;27766;52.174;5.456;2023-07-28T03:02:02;23.85;;;14.00;;
42110;SDS011;27766;52.174;5.456;2023-07-28T03:04:29;26.50;;;14.15;;
42110;SDS011;27766;52.174;5.456;2023-07-28T03:06:57;29.48;;;14.80;;
42110;SDS011;27766;52.174;5.456;2023-07-28T03:09:24;25.95;;;16.25;;
42110;SDS011;27766;52.174;5.456;2023-07-28T03:11:52;27.55;;;15.35;;
42110;SDS011;27766;52.174;5.456;2023-07-28T03:14:19;29.98;;;16.33;;
42110;SDS011;27766;52.174;5.456;2023-07-28T03:16:46;26.08;;;15.80;;
42110;SDS011;27766;52.174;5.456;2023-07-28T03:19:13;24.08;;;15.00;;
42110;SDS011;27766;52.174;5.456;2023-07-28T03:21:40;27.73;;;15.23;;
42110;SDS011;27766;52.174;5.456;2023-07-28T03:24:07;22.83;;;13.95;;
42110;SDS011;27766;52.174;5.456;2023-07-28T03:26:35;25.83;;;14.52;;
42110;SDS011;27766;52.174;5.456;2023-07-28T03:29:02;30.98;;;15.82;;
42110;SDS011;27766;52.174;5.456;2023-07-28T03:31:30;23.92;;;15.23;;
42110;SDS011;27766;52.174;5.456;2023-07-28T03:33:57;26.65;;;15.02;;
42110;SDS011;27766;52.174;5.456;2023-07-28T03:36:25;25.20;;;15.80;;
42110;SDS011;27766;52.174;5.456;2023-07-28T03:38:52;27.67;;;15.27;;
42110;SDS011;27766;52.174;5.456;2023-07-28T03:41:19;25.05;;;15.60;;
42110;SDS011;27766;52.174;5.456;2023-07-28T03:43:47;27.55;;;15.77;;
42110;SDS011;27766;52.174;5.456;2023-07-28T03:46:14;27.63;;;16.38;;
42110;SDS011;27766;52.174;5.456;2023-07-28T03:48:41;22.00;;;15.10;;
42110;SDS011;27766;52.174;5.456;2023-07-28T03:51:08;32.42;;;17.00;;
42110;SDS011;27766;52.174;5.456;2023-07-28T03:53:36;31.33;;;16.38;;
42110;SDS011;27766;52.174;5.456;2023-07-28T03:56:03;31.27;;;18.70;;
42110;SDS011;27766;52.174;5.456;2023-07-28T03:58:30;31.60;;;18.67;;
42110;SDS011;27766;52.174;5.456;2023-07-28T04:00:58;36.47;;;17.75;;
42110;SDS011;27766;52.174;5.456;2023-07-28T04:03:25;30.95;;;18.45;;
42110;SDS011;27766;52.174;5.456;2023-07-28T04:05:52;28.55;;;17.80;;
42110;SDS011;27766;52.174;5.456;2023-07-28T04:08:20;33.13;;;19.00;;
42110;SDS011;27766;52.174;5.456;2023-07-28T04:10:47;36.53;;;18.63;;
42110;SDS011;27766;52.174;5.456;2023-07-28T04:13:14;35.75;;;19.10;;
42110;SDS011;27766;52.174;5.456;2023-07-28T04:15:41;34.72;;;21.08;;
42110;SDS011;27766;52.174;5.456;2023-07-28T04:18:08;32.67;;;19.85;;
42110;SDS011;27766;52.174;5.456;2023-07-28T04:20:36;35.13;;;20.17;;
42110;SDS011;27766;52.174;5.456;2023-07-28T04:23:03;33.92;;;21.38;;
42110;SDS011;27766;52.174;5.456;2023-07-28T04:25:30;29.40;;;19.88;;
42110;SDS011;27766;52.174;5.456;2023-07-28T04:28:00;36.35;;;20.77;;
42110;SDS011;27766;52.174;5.456;2023-07-28T04:30:27;43.42;;;21.88;;
42110;SDS011;27766;52.174;5.456;2023-07-28T04:32:55;29.30;;;21.02;;
42110;SDS011;27766;52.174;5.456;2023-07-28T04:35:23;33.97;;;19.38;;
42110;SDS011;27766;52.174;5.456;2023-07-28T04:37:50;40.30;;;20.58;;
42110;SDS011;27766;52.174;5.456;2023-07-28T04:40:17;38.67;;;20.38;;
42110;SDS011;27766;52.174;5.456;2023-07-28T04:42:44;35.30;;;18.67;;
42110;SDS011;27766;52.174;5.456;2023-07-28T04:45:13;41.25;;;21.33;;
42110;SDS011;27766;52.174;5.456;2023-07-28T04:47:40;41.70;;;20.30;;
42110;SDS011;27766;52.174;5.456;2023-07-28T04:50:07;36.05;;;19.85;;
42110;SDS011;27766;52.174;5.456;2023-07-28T04:52:34;32.65;;;18.92;;
42110;SDS011;27766;52.174;5.456;2023-07-28T04:55:02;36.72;;;20.90;;
42110;SDS011;27766;52.174;5.456;2023-07-28T04:57:29;32.28;;;19.02;;
42110;SDS011;27766;52.174;5.456;2023-07-28T04:59:56;33.63;;;20.90;;
42110;SDS011;27766;52.174;5.456;2023-07-28T05:02:24;45.40;;;21.27;;
42110;SDS011;27766;52.174;5.456;2023-07-28T05:04:51;33.15;;;19.95;;
42110;SDS011;27766;52.174;5.456;2023-07-28T05:07:19;37.00;;;20.58;;
42110;SDS011;27766;52.174;5.456;2023-07-28T05:09:47;32.22;;;20.48;;
42110;SDS011;27766;52.174;5.456;2023-07-28T05:12:14;40.30;;;20.27;;
42110;SDS011;27766;52.174;5.456;2023-07-28T05:14:42;48.55;;;20.50;;
42110;SDS011;27766;52.174;5.456;2023-07-28T05:17:09;45.38;;;22.40;;
42110;SDS011;27766;52.174;5.456;2023-07-28T05:19:36;36.88;;;21.60;;
42110;SDS011;27766;52.174;5.456;2023-07-28T05:22:03;43.47;;;21.80;;
42110;SDS011;27766;52.174;5.456;2023-07-28T05:24:33;45.63;;;21.90;;
42110;SDS011;27766;52.174;5.456;2023-07-28T05:27:00;41.35;;;21.08;;
42110;SDS011;27766;52.174;5.456;2023-07-28T05:29:28;46.85;;;21.83;;
42110;SDS011;27766;52.174;5.456;2023-07-28T05:31:57;36.83;;;21.45;;
42110;SDS011;27766;52.174;5.456;2023-07-28T05:34:27;33.53;;;20.38;;
42110;SDS011;27766;52.174;5.456;2023-07-28T05:36:54;43.55;;;21.33;;
42110;SDS011;27766;52.174;5.456;2023-07-28T05:39:22;35.03;;;21.15;;
42110;SDS011;27766;52.174;5.456;2023-07-28T05:41:49;34.05;;;20.88;;
42110;SDS011;27766;52.174;5.456;2023-07-28T05:44:17;38.47;;;20.58;;
42110;SDS011;27766;52.174;5.456;2023-07-28T05:46:44;39.33;;;21.77;;
42110;SDS011;27766;52.174;5.456;2023-07-28T05:49:12;36.72;;;20.23;;
42110;SDS011;27766;52.174;5.456;2023-07-28T05:51:40;30.00;;;19.13;;
42110;SDS011;27766;52.174;5.456;2023-07-28T05:54:07;29.65;;;18.38;;
42110;SDS011;27766;52.174;5.456;2023-07-28T05:56:34;32.15;;;18.13;;
42110;SDS011;27766;52.174;5.456;2023-07-28T05:59:01;33.85;;;18.67;;
42110;SDS011;27766;52.174;5.456;2023-07-28T06:01:28;29.55;;;17.80;;
42110;SDS011;27766;52.174;5.456;2023-07-28T06:03:56;29.95;;;16.20;;
42110;SDS011;27766;52.174;5.456;2023-07-28T06:06:26;34.63;;;17.20;;
42110;SDS011;27766;52.174;5.456;2023-07-28T06:08:54;30.25;;;17.30;;
42110;SDS011;27766;52.174;5.456;2023-07-28T06:11:21;24.92;;;15.85;;
42110;SDS011;27766;52.174;5.456;2023-07-28T06:13:49;26.70;;;15.88;;
42110;SDS011;27766;52.174;5.456;2023-07-28T06:16:16;32.25;;;16.95;;
42110;SDS011;27766;52.174;5.456;2023-07-28T06:18:43;25.20;;;15.90;;
42110;SDS011;27766;52.174;5.456;2023-07-28T06:21:11;28.83;;;15.13;;
42110;SDS011;27766;52.174;5.456;2023-07-28T06:23:38;25.98;;;15.30;;
42110;SDS011;27766;52.174;5.456;2023-07-28T06:26:05;23.73;;;15.45;;
42110;SDS011;27766;52.174;5.456;2023-07-28T06:28:33;28.85;;;15.73;;
42110;SDS011;27766;52.174;5.456;2023-07-28T06:31:00;26.83;;;14.93;;
42110;SDS011;27766;52.174;5.456;2023-07-28T06:33:30;26.15;;;14.80;;
42110;SDS011;27766;52.174;5.456;2023-07-28T06:36:00;25.48;;;14.00;;
42110;SDS011;27766;52.174;5.456;2023-07-28T06:38:30;20.63;;;13.82;;
42110;SDS011;27766;52.174;5.456;2023-07-28T06:40:57;24.20;;;14.60;;
42110;SDS011;27766;52.174;5.456;2023-07-28T06:43:26;21.08;;;14.38;;
42110;SDS011;27766;52.174;5.456;2023-07-28T06:45:54;25.65;;;14.40;;
42110;SDS011;27766;52.174;5.456;2023-07-28T06:48:21;20.40;;;13.57;;
42110;SDS011;27766;52.174;5.456;2023-07-28T06:50:49;24.08;;;15.75;;
42110;SDS011;27766;52.174;5.456;2023-07-28T06:53:16;19.58;;;13.32;;
42110;SDS011;27766;52.174;5.456;2023-07-28T06:55:43;27.42;;;14.15;;
42110;SDS011;27766;52.174;5.456;2023-07-28T06:58:11;19.60;;;14.27;;
42110;SDS011;27766;52.174;5.456;2023-07-28T07:00:38;19.10;;;14.10;;
42110;SDS011;27766;52.174;5.456;2023-07-28T07:03:05;22.85;;;13.77;;
42110;SDS011;27766;52.174;5.456;2023-07-28T07:05:33;20.02;;;12.93;;
42110;SDS011;27766;52.174;5.456;2023-07-28T07:08:00;20.65;;;14.63;;
42110;SDS011;27766;52.174;5.456;2023-07-28T07:10:28;21.80;;;14.45;;
42110;SDS011;27766;52.174;5.456;2023-07-28T07:12:55;28.58;;;14.75;;
42110;SDS011;27766;52.174;5.456;2023-07-28T07:15:24;22.85;;;15.30;;
42110;SDS011;27766;52.174;5.456;2023-07-28T07:17:52;23.98;;;15.27;;
42110;SDS011;27766;52.174;5.456;2023-07-28T07:20:19;23.65;;;14.27;;
42110;SDS011;27766;52.174;5.456;2023-07-28T07:22:46;21.58;;;13.68;;
42110;SDS011;27766;52.174;5.456;2023-07-28T07:25:14;20.92;;;13.70;;
42110;SDS011;27766;52.174;5.456;2023-07-28T07:27:41;21.88;;;14.95;;
42110;SDS011;27766;52.174;5.456;2023-07-28T07:30:09;28.67;;;14.88;;
42110;SDS011;27766;52.174;5.456;2023-07-28T07:32:36;25.42;;;15.25;;
42110;SDS011;27766;52.174;5.456;2023-07-28T07:35:04;25.08;;;14.57;;
42110;SDS011;27766;52.174;5.456;2023-07-28T07:37:31;21.65;;;14.93;;
42110;SDS011;27766;52.174;5.456;2023-07-28T07:39:59;24.15;;;15.07;;
42110;SDS011;27766;52.174;5.456;2023-07-28T07:42:39;25.58;;;15.27;;
42110;SDS011;27766;52.174;5.456;2023-07-28T07:45:10;24.33;;;15.38;;
42110;SDS011;27766;52.174;5.456;2023-07-28T07:47:39;24.35;;;16.10;;
42110;SDS011;27766;52.174;5.456;2023-07-28T07:50:07;24.35;;;15.48;;
42110;SDS011;27766;52.174;5.456;2023-07-28T07:52:36;31.25;;;17.20;;
42110;SDS011;27766;52.174;5.456;2023-07-28T07:55:08;23.15;;;16.63;;
42110;SDS011;27766;52.174;5.456;2023-07-28T07:57:37;24.65;;;15.70;;
42110;SDS011;27766;52.174;5.456;2023-07-28T08:00:06;21.30;;;15.13;;
42110;SDS011;27766;52.174;5.456;2023-07-28T08:02:34;26.67;;;16.13;;
42110;SDS011;27766;52.174;5.456;2023-07-28T08:05:02;22.20;;;15.45;;
42110;SDS011;27766;52.174;5.456;2023-07-28T08:07:29;24.88;;;15.20;;
42110;SDS011;27766;52.174;5.456;2023-07-28T08:09:56;19.90;;;14.32;;
42110;SDS011;27766;52.174;5.456;2023-07-28T08:12:24;19.20;;;13.63;;
42110;SDS011;27766;52.174;5.456;2023-07-28T08:14:51;19.55;;;13.45;;
42110;SDS011;27766;52.174;5.456;2023-07-28T08:17:21;23.02;;;13.38;;
42110;SDS011;27766;52.174;5.456;2023-07-28T08:19:49;17.63;;;11.90;;
42110;SDS011;27766;52.174;5.456;2023-07-28T08:22:16;19.30;;;12.20;;
42110;SDS011;27766;52.174;5.456;2023-07-28T08:24:43;17.35;;;11.35;;
42110;SDS011;27766;52.174;5.456;2023-07-28T08:27:10;16.73;;;11.25;;
42110;SDS011;27766;52.174;5.456;2023-07-28T08:29:37;15.63;;;10.77;;
42110;SDS011;27766;52.174;5.456;2023-07-28T08:32:05;13.90;;;10.10;;
42110;SDS011;27766;52.174;5.456;2023-07-28T08:34:32;17.52;;;10.68;;
42110;SDS011;27766;52.174;5.456;2023-07-28T08:36:59;13.55;;;10.68;;
42110;SDS011;27766;52.174;5.456;2023-07-28T08:39:27;13.68;;;9.85;;
42110;SDS011;27766;52.174;5.456;2023-07-28T08:42:00;14.95;;;9.93;;
42110;SDS011;27766;52.174;5.456;2023-07-28T08:44:30;13.40;;;9.13;;
42110;SDS011;27766;52.174;5.456;2023-07-28T08:47:02;14.95;;;8.85;;
42110;SDS011;27766;52.174;5.456;2023-07-28T08:49:33;15.13;;;8.85;;
42110;SDS011;27766;52.174;5.456;2023-07-28T08:52:04;9.65;;;8.65;;
42110;SDS011;27766;52.174;5.456;2023-07-28T08:54:32;16.45;;;8.75;;
42110;SDS011;27766;52.174;5.456;2023-07-28T08:56:59;11.18;;;8.00;;
42110;SDS011;27766;52.174;5.456;2023-07-28T08:59:28;10.15;;;6.85;;
42110;SDS011;27766;52.174;5.456;2023-07-28T09:01:57;8.75;;;5.63;;
42110;SDS011;27766;52.174;5.456;2023-07-28T09:04:26;12.63;;;4.78;;
42110;SDS011;27766;52.174;5.456;2023-07-28T09:06:55;10.05;;;4.72;;
42110;SDS011;27766;52.174;5.456;2023-07-28T09:09:23;9.52;;;4.85;;
42110;SDS011;27766;52.174;5.456;2023-07-28T09:11:51;9.68;;;4.20;;
42110;SDS011;27766;52.174;5.456;2023-07-28T09:14:21;6.88;;;4.25;;
42110;SDS011;27766;52.174;5.456;2023-07-28T09:16:52;13.00;;;4.78;;
42110;SDS011;27766;52.174;5.456;2023-07-28T09:19:20;9.43;;;4.55;;
42110;SDS011;27766;52.174;5.456;2023-07-28T09:21:58;5.40;;;3.65;;
42110;SDS011;27766;52.174;5.456;2023-07-28T09:24:30;6.32;;;3.53;;
42110;SDS011;27766;52.174;5.456;2023-07-28T09:27:00;8.50;;;3.85;;
42110;SDS011;27766;52.174;5.456;2023-07-28T09:29:28;6.60;;;3.15;;
42110;SDS011;27766;52.174;5.456;2023-07-28T09:32:03;5.60;;;3.15;;
42110;SDS011;27766;52.174;5.456;2023-07-28T09:34:34;7.28;;;3.35;;
42110;SDS011;27766;52.174;5.456;2023-07-28T09:37:04;9.63;;;3.67;;
42110;SDS011;27766;52.174;5.456;2023-07-28T09:39:32;5.90;;;2.88;;
42110;SDS011;27766;52.174;5.456;2023-07-28T09:42:02;5.53;;;3.05;;
42110;SDS011;27766;52.174;5.456;2023-07-28T09:44:31;7.07;;;2.80;;
42110;SDS011;27766;52.174;5.456;2023-07-28T09:46:58;5.20;;;3.08;;
42110;SDS011;27766;52.174;5.456;2023-07-28T09:49:36;18.45;;;3.15;;
42110;SDS011;27766;52.174;5.456;2023-07-28T09:52:08;6.00;;;3.05;;
42110;SDS011;27766;52.174;5.456;2023-07-28T09:54:39;8.85;;;3.20;;
42110;SDS011;27766;52.174;5.456;2023-07-28T09:57:09;11.18;;;3.25;;
42110;SDS011;27766;52.174;5.456;2023-07-28T09:59:40;6.50;;;3.60;;
42110;SDS011;27766;52.174;5.456;2023-07-28T10:02:08;4.72;;;2.78;;
42110;SDS011;27766;52.174;5.456;2023-07-28T10:04:36;7.53;;;3.67;;
42110;SDS011;27766;52.174;5.456;2023-07-28T10:07:04;8.63;;;2.60;;
42110;SDS011;27766;52.174;5.456;2023-07-28T10:09:34;3.00;;;2.45;;
42110;SDS011;27766;52.174;5.456;2023-07-28T10:12:04;4.43;;;2.90;;
42110;SDS011;27766;52.174;5.456;2023-07-28T10:14:33;4.78;;;3.28;;
42110;SDS011;27766;52.174;5.456;2023-07-28T10:17:04;6.93;;;3.50;;
42110;SDS011;27766;52.174;5.456;2023-07-28T10:19:35;5.22;;;2.72;;
42110;SDS011;27766;52.174;5.456;2023-07-28T10:22:10;6.07;;;3.45;;
42110;SDS011;27766;52.174;5.456;2023-07-28T10:24:52;5.78;;;3.65;;
42110;SDS011;27766;52.174;5.456;2023-07-28T10:27:36;6.70;;;3.42;;
42110;SDS011;27766;52.174;5.456;2023-07-28T10:30:13;5.65;;;4.00;;
42110;SDS011;27766;52.174;5.456;2023-07-28T10:32:43;5.40;;;3.40;;
42110;SDS011;27766;52.174;5.456;2023-07-28T10:37:39;4.03;;;3.25;;
42110;SDS011;27766;52.174;5.456;2023-07-28T10:42:58;7.53;;;2.80;;
42110;SDS011;27766;52.174;5.456;2023-07-28T10:45:30;6.72;;;2.97;;
42110;SDS011;27766;52.174;5.456;2023-07-28T10:47:58;6.97;;;3.20;;
42110;SDS011;27766;52.174;5.456;2023-07-28T10:50:28;5.88;;;3.47;;
42110;SDS011;27766;52.174;5.456;2023-07-28T10:52:57;6.10;;;3.03;;
42110;SDS011;27766;52.174;5.456;2023-07-28T10:55:28;7.50;;;3.30;;
42110;SDS011;27766;52.174;5.456;2023-07-28T10:57:57;5.32;;;2.78;;
42110;SDS011;27766;52.174;5.456;2023-07-28T11:00:26;6.28;;;4.05;;
42110;SDS011;27766;52.174;5.456;2023-07-28T11:02:55;6.38;;;4.40;;
42110;SDS011;27766;52.174;5.456;2023-07-28T11:05:26;5.90;;;3.33;;
42110;SDS011;27766;52.174;5.456;2023-07-28T11:07:57;4.00;;;3.35;;
42110;SDS011;27766;52.174;5.456;2023-07-28T11:10:28;5.22;;;3.25;;
42110;SDS011;27766;52.174;5.456;2023-07-28T11:12:57;7.22;;;3.67;;
42110;SDS011;27766;52.174;5.456;2023-07-28T11:15:46;5.35;;;4.07;;
42110;SDS011;27766;52.174;5.456;2023-07-28T11:18:15;4.93;;;3.95;;
42110;SDS011;27766;52.174;5.456;2023-07-28T11:20:43;4.95;;;3.20;;
42110;SDS011;27766;52.174;5.456;2023-07-28T11:23:13;4.32;;;2.72;;
42110;SDS011;27766;52.174;5.456;2023-07-28T11:25:41;4.53;;;3.35;;
42110;SDS011;27766;52.174;5.456;2023-07-28T11:28:09;3.80;;;3.40;;
42110;SDS011;27766;52.174;5.456;2023-07-28T11:30:37;5.45;;;2.90;;
42110;SDS011;27766;52.174;5.456;2023-07-28T11:33:07;6.82;;;4.20;;
42110;SDS011;27766;52.174;5.456;2023-07-28T11:35:37;8.60;;;4.53;;
42110;SDS011;27766;52.174;5.456;2023-07-28T11:38:04;7.63;;;4.07;;
42110;SDS011;27766;52.174;5.456;2023-07-28T11:40:31;6.35;;;4.72;;
42110;SDS011;27766;52.174;5.456;2023-07-28T11:43:00;7.53;;;5.30;;
42110;SDS011;27766;52.174;5.456;2023-07-28T11:45:29;6.15;;;4.47;;
42110;SDS011;27766;52.174;5.456;2023-07-28T11:48:03;6.10;;;4.45;;
42110;SDS011;27766;52.174;5.456;2023-07-28T11:50:39;7.90;;;4.03;;
42110;SDS011;27766;52.174;5.456;2023-07-28T11:53:08;6.40;;;3.85;;
42110;SDS011;27766;52.174;5.456;2023-07-28T11:55:37;6.32;;;3.97;;
42110;SDS011;27766;52.174;5.456;2023-07-28T11:58:05;6.30;;;4.32;;
42110;SDS011;27766;52.174;5.456;2023-07-28T12:00:35;8.88;;;5.00;;
42110;SDS011;27766;52.174;5.456;2023-07-28T12:03:04;5.15;;;3.28;;
42110;SDS011;27766;52.174;5.456;2023-07-28T12:05:33;4.15;;;3.17;;
42110;SDS011;27766;52.174;5.456;2023-07-28T12:08:01;6.15;;;3.30;;
42110;SDS011;27766;52.174;5.456;2023-07-28T12:10:30;4.85;;;3.50;;
42110;SDS011;27766;52.174;5.456;2023-07-28T12:13:07;7.18;;;3.80;;
42110;SDS011;27766;52.174;5.456;2023-07-28T12:15:42;6.97;;;4.88;;
42110;SDS011;27766;52.174;5.456;2023-07-28T12:18:13;4.65;;;3.38;;
42110;SDS011;27766;52.174;5.456;2023-07-28T12:23:18;5.63;;;3.20;;
42110;SDS011;27766;52.174;5.456;2023-07-28T12:25:51;7.15;;;3.15;;
42110;SDS011;27766;52.174;5.456;2023-07-28T12:28:22;4.65;;;3.47;;
42110;SDS011;27766;52.174;5.456;2023-07-28T12:30:49;7.57;;;4.03;;
42110;SDS011;27766;52.174;5.456;2023-07-28T12:33:19;5.07;;;3.50;;
42110;SDS011;27766;52.174;5.456;2023-07-28T12:35:48;3.72;;;2.90;;
42110;SDS011;27766;52.174;5.456;2023-07-28T12:38:17;5.25;;;3.92;;
42110;SDS011;27766;52.174;5.456;2023-07-28T12:40:47;6.00;;;3.35;;
42110;SDS011;27766;52.174;5.456;2023-07-28T12:43:17;7.90;;;4.25;;
42110;SDS011;27766;52.174;5.456;2023-07-28T12:45:47;8.07;;;4.22;;
42110;SDS011;27766;52.174;5.456;2023-07-28T12:48:18;5.80;;;3.65;;
42110;SDS011;27766;52.174;5.456;2023-07-28T12:50:47;9.93;;;4.15;;
42110;SDS011;27766;52.174;5.456;2023-07-28T12:53:15;8.73;;;4.20;;
42110;SDS011;27766;52.174;5.456;2023-07-28T12:55:49;7.63;;;3.72;;
42110;SDS011;27766;52.174;5.456;2023-07-28T12:58:19;7.88;;;4.40;;
42110;SDS011;27766;52.174;5.456;2023-07-28T13:00:49;8.90;;;3.85;;
42110;SDS011;27766;52.174;5.456;2023-07-28T13:03:19;4.90;;;4.00;;
42110;SDS011;27766;52.174;5.456;2023-07-28T13:05:46;5.55;;;3.65;;
42110;SDS011;27766;52.174;5.456;2023-07-28T13:08:15;8.35;;;4.43;;
42110;SDS011;27766;52.174;5.456;2023-07-28T13:10:43;7.70;;;4.63;;
42110;SDS011;27766;52.174;5.456;2023-07-28T13:13:13;5.50;;;4.03;;
42110;SDS011;27766;52.174;5.456;2023-07-28T13:15:41;5.03;;;3.95;;
42110;SDS011;27766;52.174;5.456;2023-07-28T13:18:08;8.80;;;4.30;;
42110;SDS011;27766;52.174;5.456;2023-07-28T13:20:36;6.85;;;4.40;;
42110;SDS011;27766;52.174;5.456;2023-07-28T13:23:03;5.55;;;4.63;;
42110;SDS011;27766;52.174;5.456;2023-07-28T13:25:30;8.30;;;4.82;;
42110;SDS011;27766;52.174;5.456;2023-07-28T13:27:58;5.05;;;3.95;;
42110;SDS011;27766;52.174;5.456;2023-07-28T13:30:26;4.97;;;4.03;;
42110;SDS011;27766;52.174;5.456;2023-07-28T13:32:55;5.82;;;3.83;;
42110;SDS011;27766;52.174;5.456;2023-07-28T13:35:23;3.40;;;2.70;;
42110;SDS011;27766;52.174;5.456;2023-07-28T13:37:51;7.22;;;2.58;;
42110;SDS011;27766;52.174;5.456;2023-07-28T13:40:19;3.63;;;2.22;;
42110;SDS011;27766;52.174;5.456;2023-07-28T13:42:46;2.70;;;2.15;;
42110;SDS011;27766;52.174;5.456;2023-07-28T13:45:14;3.35;;;2.60;;
42110;SDS011;27766;52.174;5.456;2023-07-28T13:47:42;2.83;;;2.30;;
42110;SDS011;27766;52.174;5.456;2023-07-28T13:50:09;4.43;;;2.58;;
42110;SDS011;27766;52.174;5.456;2023-07-28T13:52:36;4.72;;;2.90;;
42110;SDS011;27766;52.174;5.456;2023-07-28T13:55:03;7.18;;;3.30;;
42110;SDS011;27766;52.174;5.456;2023-07-28T13:57:34;3.97;;;2.88;;
42110;SDS011;27766;52.174;5.456;2023-07-28T14:00:02;6.43;;;2.88;;
42110;SDS011;27766;52.174;5.456;2023-07-28T14:02:30;3.20;;;2.63;;
42110;SDS011;27766;52.174;5.456;2023-07-28T14:04:57;4.78;;;3.25;;
42110;SDS011;27766;52.174;5.456;2023-07-28T14:07:26;5.32;;;2.83;;
42110;SDS011;27766;52.174;5.456;2023-07-28T14:09:53;4.78;;;2.88;;
42110;SDS011;27766;52.174;5.456;2023-07-28T14:12:20;3.00;;;2.28;;
42110;SDS011;27766;52.174;5.456;2023-07-28T14:14:47;2.95;;;2.47;;
42110;SDS011;27766;52.174;5.456;2023-07-28T14:17:16;3.33;;;2.50;;
42110;SDS011;27766;52.174;5.456;2023-07-28T14:19:43;3.70;;;2.60;;
42110;SDS011;27766;52.174;5.456;2023-07-28T14:22:11;3.40;;;2.50;;
42110;SDS011;27766;52.174;5.456;2023-07-28T14:24:39;3.40;;;2.60;;
42110;SDS011;27766;52.174;5.456;2023-07-28T14:27:06;6.40;;;2.90;;
42110;SDS011;27766;52.174;5.456;2023-07-28T14:29:33;8.55;;;3.05;;
42110;SDS011;27766;52.174;5.456;2023-07-28T14:32:00;3.65;;;2.65;;
42110;SDS011;27766;52.174;5.456;2023-07-28T14:34:28;3.35;;;2.35;;
42110;SDS011;27766;52.174;5.456;2023-07-28T14:36:55;2.80;;;2.50;;
42110;SDS011;27766;52.174;5.456;2023-07-28T14:39:22;5.43;;;2.88;;
42110;SDS011;27766;52.174;5.456;2023-07-28T14:41:50;3.75;;;2.88;;
42110;SDS011;27766;52.174;5.456;2023-07-28T14:44:17;3.83;;;2.47;;
42110;SDS011;27766;52.174;5.456;2023-07-28T14:46:44;4.45;;;2.72;;
42110;SDS011;27766;52.174;5.456;2023-07-28T14:49:13;5.05;;;3.08;;
42110;SDS011;27766;52.174;5.456;2023-07-28T14:51:40;4.40;;;2.70;;